RYR155 EDJA-LIPZ
Flight info
| Callsign | RYR155 |
|---|---|
| Flight time | N/A |
| Altitude | 29000 |
| Route | KPT4A KPT Z999 BEMKI L607 XEBIX Y740 NATAG M738 ADOSA/N0398F190 L612 ALBET ALBET2E |
| Aircraft | B738/M-SDE2E3FGHIRWXY/LB1 |
Departure
| Time | N/A |
|---|---|
| Airport | Memmingen Allgau Airport (EDJA) |
Arrival
| Time | 2026-05-04 20:02 |
|---|---|
| Airport | Venice Marco Polo Airport (LIPZ) |
| Time | Latitude | Longitude | Altitude | Speed | Heading |
|---|---|---|---|---|---|
| 2026-05-04 19:37 | 46.71594 | 10.68216 | 27139 ft | 364 kts | 167° |
| 2026-05-04 19:37 | 46.69175 | 10.69076 | 27133 ft | 362 kts | 169° |
| 2026-05-04 19:37 | 46.66683 | 10.69878 | 27150 ft | 361 kts | 170° |
| 2026-05-04 19:38 | 46.64256 | 10.70640 | 27132 ft | 361 kts | 170° |
| 2026-05-04 19:38 | 46.61803 | 10.71414 | 27121 ft | 361 kts | 170° |
| 2026-05-04 19:38 | 46.59341 | 10.72198 | 26814 ft | 362 kts | 170° |
| 2026-05-04 19:38 | 46.56891 | 10.72987 | 26588 ft | 359 kts | 169° |
| 2026-05-04 19:39 | 46.54459 | 10.73775 | 26343 ft | 357 kts | 169° |
| 2026-05-04 19:39 | 46.52031 | 10.74564 | 26097 ft | 355 kts | 169° |
| 2026-05-04 19:39 | 46.49626 | 10.75347 | 25853 ft | 354 kts | 169° |
| 2026-05-04 19:39 | 46.47226 | 10.76127 | 25607 ft | 353 kts | 169° |
| 2026-05-04 19:40 | 46.44828 | 10.76908 | 25360 ft | 352 kts | 169° |
| 2026-05-04 19:40 | 46.42442 | 10.77683 | 25124 ft | 352 kts | 169° |
| 2026-05-04 19:40 | 46.40043 | 10.78462 | 24888 ft | 352 kts | 169° |
| 2026-05-04 19:40 | 46.37660 | 10.79235 | 24670 ft | 351 kts | 169° |
| 2026-05-04 19:41 | 46.35272 | 10.80009 | 24436 ft | 351 kts | 169° |
| 2026-05-04 19:41 | 46.32914 | 10.80773 | 24227 ft | 350 kts | 169° |
| 2026-05-04 19:41 | 46.30508 | 10.81552 | 24184 ft | 351 kts | 169° |
| 2026-05-04 19:41 | 46.28154 | 10.82313 | 24194 ft | 349 kts | 169° |
| 2026-05-04 19:42 | 46.25785 | 10.83078 | 24185 ft | 349 kts | 169° |
| 2026-05-04 19:42 | 46.23414 | 10.83843 | 24172 ft | 349 kts | 169° |
| 2026-05-04 19:42 | 46.21041 | 10.84607 | 24183 ft | 350 kts | 169° |
| 2026-05-04 19:42 | 46.18654 | 10.85374 | 24181 ft | 351 kts | 169° |
| 2026-05-04 19:43 | 46.16276 | 10.86137 | 24174 ft | 351 kts | 169° |
| 2026-05-04 19:43 | 46.13888 | 10.86902 | 24185 ft | 351 kts | 169° |
| 2026-05-04 19:43 | 46.11501 | 10.87667 | 24182 ft | 351 kts | 169° |
| 2026-05-04 19:43 | 46.09126 | 10.88426 | 24199 ft | 360 kts | 169° |
| 2026-05-04 19:44 | 46.06623 | 10.89224 | 24197 ft | 375 kts | 169° |
| 2026-05-04 19:44 | 46.04023 | 10.90054 | 24003 ft | 394 kts | 169° |
| 2026-05-04 19:44 | 46.01258 | 10.90934 | 23519 ft | 419 kts | 169° |
| 2026-05-04 19:44 | 45.98312 | 10.91873 | 22863 ft | 445 kts | 169° |
| 2026-05-04 19:45 | 45.95258 | 10.92847 | 22154 ft | 449 kts | 169° |
| 2026-05-04 19:45 | 45.92227 | 10.93817 | 21492 ft | 443 kts | 169° |
| 2026-05-04 19:45 | 45.89231 | 10.94773 | 20833 ft | 438 kts | 169° |
| 2026-05-04 19:45 | 45.86270 | 10.95715 | 20164 ft | 433 kts | 169° |
| 2026-05-04 19:46 | 45.83375 | 10.96633 | 19549 ft | 430 kts | 169° |
| 2026-05-04 19:46 | 45.80467 | 10.97553 | 18865 ft | 427 kts | 169° |
| 2026-05-04 19:46 | 45.77561 | 10.98468 | 18086 ft | 425 kts | 169° |
| 2026-05-04 19:46 | 45.74691 | 10.99371 | 17414 ft | 420 kts | 169° |
| 2026-05-04 19:47 | 45.71843 | 11.00265 | 16768 ft | 415 kts | 169° |
| 2026-05-04 19:47 | 45.69039 | 11.01145 | 16110 ft | 411 kts | 169° |
| 2026-05-04 19:47 | 45.66322 | 11.02331 | 15499 ft | 407 kts | 155° |
| 2026-05-04 19:47 | 45.63978 | 11.04552 | 14975 ft | 404 kts | 140° |
| 2026-05-04 19:48 | 45.62107 | 11.07505 | 14432 ft | 401 kts | 126° |
| 2026-05-04 19:48 | 45.60658 | 11.10885 | 13875 ft | 396 kts | 123° |
| 2026-05-04 19:48 | 45.59240 | 11.14246 | 13223 ft | 392 kts | 123° |
| 2026-05-04 19:48 | 45.57811 | 11.17525 | 12707 ft | 385 kts | 124° |
| 2026-05-04 19:49 | 45.56374 | 11.20731 | 12113 ft | 381 kts | 125° |
| 2026-05-04 19:49 | 45.54960 | 11.23857 | 11549 ft | 378 kts | 125° |
| 2026-05-04 19:49 | 45.53553 | 11.26960 | 11324 ft | 365 kts | 125° |
| 2026-05-04 19:49 | 45.52202 | 11.29945 | 11159 ft | 352 kts | 125° |
| 2026-05-04 19:50 | 45.50894 | 11.32837 | 11007 ft | 340 kts | 125° |
| 2026-05-04 19:50 | 45.49636 | 11.35616 | 10878 ft | 328 kts | 125° |
| 2026-05-04 19:50 | 45.48417 | 11.38307 | 10741 ft | 318 kts | 126° |
| 2026-05-04 19:50 | 45.47234 | 11.40919 | 10613 ft | 308 kts | 126° |
| 2026-05-04 19:51 | 45.46471 | 11.42602 | 10527 ft | 303 kts | 126° |
| 2026-05-04 19:51 | 45.45345 | 11.45083 | 10403 ft | 294 kts | 126° |
| 2026-05-04 19:51 | 45.44248 | 11.47497 | 10277 ft | 286 kts | 126° |
| 2026-05-04 19:51 | 45.43181 | 11.49843 | 10156 ft | 278 kts | 126° |
| 2026-05-04 19:52 | 45.42078 | 11.52063 | 10003 ft | 271 kts | 133° |
| 2026-05-04 19:52 | 45.40809 | 11.54044 | 9716 ft | 270 kts | 136° |
| 2026-05-04 19:52 | 45.39527 | 11.55990 | 9433 ft | 269 kts | 135° |
| 2026-05-04 19:52 | 45.38262 | 11.57942 | 9155 ft | 268 kts | 135° |
| 2026-05-04 19:53 | 45.37027 | 11.59871 | 8884 ft | 266 kts | 135° |
| 2026-05-04 19:53 | 45.35785 | 11.61820 | 8616 ft | 265 kts | 134° |
| 2026-05-04 19:53 | 45.34682 | 11.63909 | 8323 ft | 267 kts | 115° |
| 2026-05-04 19:53 | 45.34318 | 11.66489 | 8124 ft | 268 kts | 94° |
| 2026-05-04 19:54 | 45.34387 | 11.69151 | 7839 ft | 269 kts | 88° |
| 2026-05-04 19:54 | 45.34545 | 11.71796 | 7582 ft | 268 kts | 88° |
| 2026-05-04 19:54 | 45.34703 | 11.74437 | 7310 ft | 267 kts | 88° |
| 2026-05-04 19:54 | 45.34837 | 11.77034 | 7050 ft | 267 kts | 88° |
| 2026-05-04 19:55 | 45.34961 | 11.79665 | 6789 ft | 266 kts | 88° |
| 2026-05-04 19:55 | 45.35080 | 11.82290 | 6529 ft | 266 kts | 88° |
| 2026-05-04 19:55 | 45.35148 | 11.84914 | 6216 ft | 266 kts | 95° |
| 2026-05-04 19:55 | 45.34985 | 11.87520 | 5938 ft | 264 kts | 98° |
| 2026-05-04 19:56 | 45.34767 | 11.90114 | 5662 ft | 264 kts | 98° |
| 2026-05-04 19:56 | 45.34550 | 11.92702 | 5383 ft | 263 kts | 98° |
| 2026-05-04 19:56 | 45.34344 | 11.95267 | 5229 ft | 258 kts | 98° |
| 2026-05-04 19:56 | 45.34149 | 11.97772 | 5098 ft | 252 kts | 98° |
| 2026-05-04 19:57 | 45.33964 | 12.00208 | 4973 ft | 245 kts | 97° |
| 2026-05-04 19:57 | 45.33788 | 12.02584 | 4869 ft | 238 kts | 97° |
| 2026-05-04 19:57 | 45.33616 | 12.04898 | 4747 ft | 232 kts | 97° |
| 2026-05-04 19:57 | 45.33447 | 12.07165 | 4522 ft | 230 kts | 98° |
| 2026-05-04 19:58 | 45.33280 | 12.09421 | 4293 ft | 231 kts | 98° |
| 2026-05-04 19:58 | 45.33154 | 12.11666 | 4054 ft | 232 kts | 87° |
| 2026-05-04 19:58 | 45.33727 | 12.13765 | 3810 ft | 231 kts | 46° |
| 2026-05-04 19:58 | 45.34976 | 12.15145 | 3657 ft | 226 kts | 36° |
| 2026-05-04 19:59 | 45.36185 | 12.16622 | 3481 ft | 233 kts | 42° |
| 2026-05-04 19:59 | 45.37395 | 12.18220 | 3196 ft | 239 kts | 42° |
| 2026-05-04 19:59 | 45.38613 | 12.19811 | 2859 ft | 237 kts | 42° |
| 2026-05-04 19:59 | 45.39826 | 12.21380 | 2553 ft | 233 kts | 42° |
| 2026-05-04 20:00 | 45.41015 | 12.22914 | 2238 ft | 227 kts | 42° |
| 2026-05-04 20:00 | 45.42154 | 12.24387 | 1928 ft | 216 kts | 41° |
| 2026-05-04 20:00 | 45.43243 | 12.25793 | 1669 ft | 205 kts | 42° |
| 2026-05-04 20:00 | 45.44263 | 12.27109 | 1376 ft | 191 kts | 44° |
| 2026-05-04 20:01 | 45.45199 | 12.28318 | 1156 ft | 174 kts | 43° |
| 2026-05-04 20:01 | 45.46068 | 12.29440 | 890 ft | 165 kts | 44° |
| 2026-05-04 20:01 | 45.46886 | 12.30535 | 658 ft | 159 kts | 45° |
| 2026-05-04 20:01 | 45.47698 | 12.31585 | 419 ft | 155 kts | 41° |
| 2026-05-04 20:02 | 45.48497 | 12.32601 | 263 ft | 153 kts | 41° |
| 2026-05-04 20:02 | 45.49273 | 12.33606 | 116 ft | 156 kts | 40° |
| 2026-05-04 20:02 | 45.50081 | 12.34628 | 15 ft | 148 kts | 42° |
| 2026-05-04 20:02 | 45.50483 | 12.35139 | 12 ft | 22 kts | 43° |
| 2026-05-04 20:03 | 45.50594 | 12.35288 | 12 ft | 22 kts | 38° |
| 2026-05-04 20:03 | 45.50721 | 12.35393 | 15 ft | 20 kts | 23° |
| 2026-05-04 20:03 | 45.50800 | 12.35427 | 15 ft | 8 kts | 12° |
| 2026-05-04 20:03 | 45.50844 | 12.35439 | 15 ft | 0 kts | 11° |
| 2026-05-04 20:04 | 45.50845 | 12.35439 | 15 ft | 1 kts | 11° |
| 2026-05-04 20:04 | 45.50860 | 12.35443 | 15 ft | 6 kts | 11° |
| 2026-05-04 20:04 | 45.50923 | 12.35445 | 16 ft | 12 kts | 329° |
| 2026-05-04 20:05 | 45.50968 | 12.35320 | 16 ft | 17 kts | 277° |
| 2026-05-04 20:05 | 45.50924 | 12.35160 | 15 ft | 18 kts | 221° |
| 2026-05-04 20:05 | 45.50832 | 12.35041 | 15 ft | 17 kts | 221° |
| 2026-05-04 20:05 | 45.50757 | 12.34947 | 16 ft | 8 kts | 221° |
| 2026-05-04 20:06 | 45.50754 | 12.34943 | 15 ft | 0 kts | 220° |
| 2026-05-04 20:06 | 45.50750 | 12.34939 | 15 ft | 4 kts | 220° |
| 2026-05-04 20:06 | 45.50691 | 12.34865 | 15 ft | 15 kts | 221° |
| 2026-05-04 20:06 | 45.50608 | 12.34759 | 14 ft | 12 kts | 224° |
| 2026-05-04 20:07 | 45.50601 | 12.34643 | 15 ft | 12 kts | 273° |
| 2026-05-04 20:07 | 45.50601 | 12.34528 | 15 ft | 12 kts | 268° |
| 2026-05-04 20:07 | 45.50602 | 12.34415 | 15 ft | 11 kts | 287° |
| 2026-05-04 20:07 | 45.50619 | 12.34319 | 15 ft | 9 kts | 269° |
| 2026-05-04 20:08 | 45.50616 | 12.34233 | 15 ft | 6 kts | 268° |
| 2026-05-04 20:08 | 45.50616 | 12.34212 | 15 ft | 1 kts | 267° |
| 2026-05-04 20:08 | 45.50616 | 12.34211 | 15 ft | 0 kts | 267° |